sensor_id;sensor_type;location;lat;lon;timestamp;P1;durP1;ratioP1;P2;durP2;ratioP2
47812;SDS011;34221;45.296;9.516;2024-02-21T15:45:01;24.00;;;15.55;;
47812;SDS011;34221;45.296;9.516;2024-02-21T15:45:19;27.77;;;17.52;;
47812;SDS011;34221;45.296;9.516;2024-02-21T15:45:34;23.00;;;17.73;;
47812;SDS011;34221;45.296;9.516;2024-02-21T15:45:49;24.80;;;18.13;;
47812;SDS011;34221;45.296;9.516;2024-02-21T15:46:03;24.45;;;17.20;;
47812;SDS011;34221;45.296;9.516;2024-02-21T15:46:19;22.13;;;16.67;;
47812;SDS011;34221;45.296;9.516;2024-02-21T15:46:33;21.85;;;17.00;;
47812;SDS011;34221;45.296;9.516;2024-02-21T15:46:51;21.45;;;16.70;;
47812;SDS011;34221;45.296;9.516;2024-02-21T15:47:07;23.55;;;17.52;;
47812;SDS011;34221;45.296;9.516;2024-02-21T15:47:22;23.45;;;17.25;;
47812;SDS011;34221;45.296;9.516;2024-02-21T15:47:37;23.73;;;17.10;;
47812;SDS011;34221;45.296;9.516;2024-02-21T15:47:52;24.52;;;17.15;;
47812;SDS011;34221;45.296;9.516;2024-02-21T15:48:08;24.85;;;17.92;;
47812;SDS011;34221;45.296;9.516;2024-02-21T15:48:23;26.83;;;18.67;;
47812;SDS011;34221;45.296;9.516;2024-02-21T15:48:38;25.02;;;18.13;;
47812;SDS011;34221;45.296;9.516;2024-02-21T15:48:53;24.85;;;18.50;;
47812;SDS011;34221;45.296;9.516;2024-02-21T15:49:08;25.33;;;19.08;;
47812;SDS011;34221;45.296;9.516;2024-02-21T15:49:25;26.42;;;19.88;;
47812;SDS011;34221;45.296;9.516;2024-02-21T15:49:41;27.75;;;20.55;;
47812;SDS011;34221;45.296;9.516;2024-02-21T15:49:56;27.02;;;20.55;;
47812;SDS011;34221;45.296;9.516;2024-02-21T15:50:13;26.55;;;19.88;;
47812;SDS011;34221;45.296;9.516;2024-02-21T15:50:28;27.33;;;18.63;;
47812;SDS011;34221;45.296;9.516;2024-02-21T15:50:43;27.80;;;19.48;;
47812;SDS011;34221;45.296;9.516;2024-02-21T15:50:59;27.35;;;20.25;;
47812;SDS011;34221;45.296;9.516;2024-02-21T15:51:18;26.02;;;20.02;;
47812;SDS011;34221;45.296;9.516;2024-02-21T15:51:33;25.50;;;20.05;;
47812;SDS011;34221;45.296;9.516;2024-02-21T15:51:49;27.17;;;20.30;;
47812;SDS011;34221;45.296;9.516;2024-02-21T15:52:04;26.27;;;19.90;;
47812;SDS011;34221;45.296;9.516;2024-02-21T15:52:20;26.33;;;20.20;;
47812;SDS011;34221;45.296;9.516;2024-02-21T15:52:35;26.42;;;20.42;;
47812;SDS011;34221;45.296;9.516;2024-02-21T15:52:54;24.13;;;20.33;;
47812;SDS011;34221;45.296;9.516;2024-02-21T15:53:09;25.70;;;20.02;;
47812;SDS011;34221;45.296;9.516;2024-02-21T15:53:25;26.27;;;19.77;;
47812;SDS011;34221;45.296;9.516;2024-02-21T15:53:40;26.92;;;19.48;;
47812;SDS011;34221;45.296;9.516;2024-02-21T15:53:59;27.08;;;19.67;;
47812;SDS011;34221;45.296;9.516;2024-02-21T15:54:14;25.95;;;19.33;;
47812;SDS011;34221;45.296;9.516;2024-02-21T15:54:32;25.77;;;19.10;;
47812;SDS011;34221;45.296;9.516;2024-02-21T15:54:47;26.73;;;20.43;;
47812;SDS011;34221;45.296;9.516;2024-02-21T15:55:03;28.48;;;21.33;;
47812;SDS011;34221;45.296;9.516;2024-02-21T15:55:26;24.25;;;18.50;;
47812;SDS011;34221;45.296;9.516;2024-02-21T15:55:43;23.38;;;18.02;;
47812;SDS011;34221;45.296;9.516;2024-02-21T15:56:00;25.60;;;18.80;;
47812;SDS011;34221;45.296;9.516;2024-02-21T15:56:15;26.13;;;19.15;;
47812;SDS011;34221;45.296;9.516;2024-02-21T15:56:30;26.67;;;18.50;;
47812;SDS011;34221;45.296;9.516;2024-02-21T15:56:46;27.17;;;19.05;;
47812;SDS011;34221;45.296;9.516;2024-02-21T15:57:01;27.67;;;20.38;;
47812;SDS011;34221;45.296;9.516;2024-02-21T15:57:20;26.75;;;19.92;;
47812;SDS011;34221;45.296;9.516;2024-02-21T15:57:35;26.70;;;19.30;;
47812;SDS011;34221;45.296;9.516;2024-02-21T15:57:50;26.60;;;19.58;;
47812;SDS011;34221;45.296;9.516;2024-02-21T15:58:05;25.05;;;19.08;;
47812;SDS011;34221;45.296;9.516;2024-02-21T15:58:20;26.35;;;18.92;;
47812;SDS011;34221;45.296;9.516;2024-02-21T15:58:36;27.55;;;19.25;;
47812;SDS011;34221;45.296;9.516;2024-02-21T15:58:51;25.60;;;18.95;;
47812;SDS011;34221;45.296;9.516;2024-02-21T15:59:06;28.98;;;20.17;;
47812;SDS011;34221;45.296;9.516;2024-02-21T15:59:22;27.73;;;19.67;;
47812;SDS011;34221;45.296;9.516;2024-02-21T15:59:37;23.88;;;18.38;;
47812;SDS011;34221;45.296;9.516;2024-02-21T15:59:53;23.67;;;18.23;;
47812;SDS011;34221;45.296;9.516;2024-02-21T16:00:09;23.30;;;18.20;;
47812;SDS011;34221;45.296;9.516;2024-02-21T16:00:27;25.00;;;18.92;;
47812;SDS011;34221;45.296;9.516;2024-02-21T16:00:42;24.67;;;18.27;;
47812;SDS011;34221;45.296;9.516;2024-02-21T16:00:57;24.65;;;18.17;;
47812;SDS011;34221;45.296;9.516;2024-02-21T16:01:13;24.33;;;18.08;;
47812;SDS011;34221;45.296;9.516;2024-02-21T16:01:28;23.55;;;17.98;;
47812;SDS011;34221;45.296;9.516;2024-02-21T16:01:47;23.98;;;18.73;;
47812;SDS011;34221;45.296;9.516;2024-02-21T16:02:02;25.25;;;19.08;;
47812;SDS011;34221;45.296;9.516;2024-02-21T16:02:17;27.38;;;19.30;;
47812;SDS011;34221;45.296;9.516;2024-02-21T16:02:32;27.98;;;19.60;;
47812;SDS011;34221;45.296;9.516;2024-02-21T16:02:47;27.20;;;19.50;;
47812;SDS011;34221;45.296;9.516;2024-02-21T16:03:09;27.10;;;19.20;;
47812;SDS011;34221;45.296;9.516;2024-02-21T16:03:24;25.05;;;19.02;;
47812;SDS011;34221;45.296;9.516;2024-02-21T16:03:38;24.73;;;18.98;;
47812;SDS011;34221;45.296;9.516;2024-02-21T16:03:54;27.17;;;19.48;;
47812;SDS011;34221;45.296;9.516;2024-02-21T16:04:12;28.10;;;20.42;;
47812;SDS011;34221;45.296;9.516;2024-02-21T16:04:29;26.95;;;19.80;;
47812;SDS011;34221;45.296;9.516;2024-02-21T16:04:45;27.35;;;19.33;;
47812;SDS011;34221;45.296;9.516;2024-02-21T16:05:01;26.45;;;19.17;;
47812;SDS011;34221;45.296;9.516;2024-02-21T16:05:16;25.58;;;19.30;;
47812;SDS011;34221;45.296;9.516;2024-02-21T16:05:31;26.50;;;19.27;;
47812;SDS011;34221;45.296;9.516;2024-02-21T16:05:46;27.42;;;19.90;;
47812;SDS011;34221;45.296;9.516;2024-02-21T16:06:01;28.60;;;19.75;;
47812;SDS011;34221;45.296;9.516;2024-02-21T16:06:16;27.23;;;19.30;;
47812;SDS011;34221;45.296;9.516;2024-02-21T16:06:31;24.83;;;18.63;;
47812;SDS011;34221;45.296;9.516;2024-02-21T16:06:47;25.15;;;18.38;;
47812;SDS011;34221;45.296;9.516;2024-02-21T16:07:05;25.90;;;18.35;;
47812;SDS011;34221;45.296;9.516;2024-02-21T16:07:20;28.23;;;18.88;;
47812;SDS011;34221;45.296;9.516;2024-02-21T16:07:38;26.75;;;18.90;;
47812;SDS011;34221;45.296;9.516;2024-02-21T16:07:53;24.20;;;18.42;;
47812;SDS011;34221;45.296;9.516;2024-02-21T16:08:08;24.95;;;18.75;;
47812;SDS011;34221;45.296;9.516;2024-02-21T16:08:23;23.42;;;17.40;;
47812;SDS011;34221;45.296;9.516;2024-02-21T16:08:39;23.58;;;17.25;;
47812;SDS011;34221;45.296;9.516;2024-02-21T16:08:55;25.08;;;18.52;;
47812;SDS011;34221;45.296;9.516;2024-02-21T16:09:10;26.10;;;18.90;;
47812;SDS011;34221;45.296;9.516;2024-02-21T16:09:26;26.38;;;18.20;;
47812;SDS011;34221;45.296;9.516;2024-02-21T16:09:45;24.52;;;17.70;;
47812;SDS011;34221;45.296;9.516;2024-02-21T16:10:01;23.88;;;17.77;;
47812;SDS011;34221;45.296;9.516;2024-02-21T16:10:16;25.10;;;18.17;;
47812;SDS011;34221;45.296;9.516;2024-02-21T16:10:31;25.70;;;18.88;;
47812;SDS011;34221;45.296;9.516;2024-02-21T16:10:46;25.15;;;18.77;;
47812;SDS011;34221;45.296;9.516;2024-02-21T16:11:04;24.15;;;18.38;;
47812;SDS011;34221;45.296;9.516;2024-02-21T16:11:19;24.63;;;18.98;;
47812;SDS011;34221;45.296;9.516;2024-02-21T16:11:34;27.52;;;19.77;;
47812;SDS011;34221;45.296;9.516;2024-02-21T16:11:49;27.05;;;18.92;;
47812;SDS011;34221;45.296;9.516;2024-02-21T16:12:05;24.88;;;18.20;;
47812;SDS011;34221;45.296;9.516;2024-02-21T16:12:22;24.70;;;18.25;;
47812;SDS011;34221;45.296;9.516;2024-02-21T16:12:37;25.52;;;18.48;;
47812;SDS011;34221;45.296;9.516;2024-02-21T16:12:55;27.45;;;18.98;;
47812;SDS011;34221;45.296;9.516;2024-02-21T16:13:10;27.65;;;18.95;;
47812;SDS011;34221;45.296;9.516;2024-02-21T16:13:25;27.77;;;19.48;;
47812;SDS011;34221;45.296;9.516;2024-02-21T16:13:40;27.05;;;19.67;;
47812;SDS011;34221;45.296;9.516;2024-02-21T16:13:54;25.60;;;18.38;;
47812;SDS011;34221;45.296;9.516;2024-02-21T16:14:09;24.80;;;17.85;;
47812;SDS011;34221;45.296;9.516;2024-02-21T16:14:25;24.48;;;17.75;;
47812;SDS011;34221;45.296;9.516;2024-02-21T16:14:41;23.95;;;17.45;;
47812;SDS011;34221;45.296;9.516;2024-02-21T16:14:56;23.65;;;18.25;;
47812;SDS011;34221;45.296;9.516;2024-02-21T16:15:11;26.00;;;18.67;;
47812;SDS011;34221;45.296;9.516;2024-02-21T16:15:26;24.55;;;18.23;;
47812;SDS011;34221;45.296;9.516;2024-02-21T16:15:41;21.65;;;17.48;;
47812;SDS011;34221;45.296;9.516;2024-02-21T16:15:56;24.45;;;17.88;;
47812;SDS011;34221;45.296;9.516;2024-02-21T16:16:11;27.63;;;18.30;;
47812;SDS011;34221;45.296;9.516;2024-02-21T16:16:27;27.05;;;17.85;;
47812;SDS011;34221;45.296;9.516;2024-02-21T16:16:42;25.38;;;18.02;;
47812;SDS011;34221;45.296;9.516;2024-02-21T16:16:59;22.45;;;17.25;;
47812;SDS011;34221;45.296;9.516;2024-02-21T16:17:14;22.25;;;16.58;;
47812;SDS011;34221;45.296;9.516;2024-02-21T16:17:30;23.70;;;17.45;;
47812;SDS011;34221;45.296;9.516;2024-02-21T16:17:45;25.13;;;18.17;;
47812;SDS011;34221;45.296;9.516;2024-02-21T16:18:03;26.92;;;18.83;;
47812;SDS011;34221;45.296;9.516;2024-02-21T16:18:19;26.25;;;19.27;;
47812;SDS011;34221;45.296;9.516;2024-02-21T16:18:35;25.60;;;18.88;;
47812;SDS011;34221;45.296;9.516;2024-02-21T16:18:50;24.67;;;18.42;;
47812;SDS011;34221;45.296;9.516;2024-02-21T16:19:06;23.83;;;18.67;;
47812;SDS011;34221;45.296;9.516;2024-02-21T16:19:21;24.25;;;17.67;;
47812;SDS011;34221;45.296;9.516;2024-02-21T16:19:36;25.52;;;17.65;;
47812;SDS011;34221;45.296;9.516;2024-02-21T16:19:52;24.90;;;17.73;;
47812;SDS011;34221;45.296;9.516;2024-02-21T16:20:07;25.90;;;18.27;;
47812;SDS011;34221;45.296;9.516;2024-02-21T16:20:29;25.83;;;18.25;;
47812;SDS011;34221;45.296;9.516;2024-02-21T16:20:45;25.25;;;17.63;;
47812;SDS011;34221;45.296;9.516;2024-02-21T16:21:01;24.10;;;17.73;;
47812;SDS011;34221;45.296;9.516;2024-02-21T16:21:16;24.13;;;18.27;;
47812;SDS011;34221;45.296;9.516;2024-02-21T16:21:31;25.05;;;18.60;;
47812;SDS011;34221;45.296;9.516;2024-02-21T16:21:46;26.48;;;18.60;;
47812;SDS011;34221;45.296;9.516;2024-02-21T16:22:01;25.30;;;17.70;;
47812;SDS011;34221;45.296;9.516;2024-02-21T16:22:18;23.45;;;17.10;;
47812;SDS011;34221;45.296;9.516;2024-02-21T16:22:33;24.08;;;17.70;;
47812;SDS011;34221;45.296;9.516;2024-02-21T16:22:48;25.23;;;18.15;;
47812;SDS011;34221;45.296;9.516;2024-02-21T16:23:03;25.70;;;18.35;;
47812;SDS011;34221;45.296;9.516;2024-02-21T16:23:18;24.60;;;18.13;;
47812;SDS011;34221;45.296;9.516;2024-02-21T16:23:33;23.90;;;17.67;;
47812;SDS011;34221;45.296;9.516;2024-02-21T16:23:49;23.95;;;17.60;;
47812;SDS011;34221;45.296;9.516;2024-02-21T16:24:04;23.60;;;17.60;;
47812;SDS011;34221;45.296;9.516;2024-02-21T16:24:19;24.55;;;17.67;;
47812;SDS011;34221;45.296;9.516;2024-02-21T16:24:34;26.40;;;18.67;;
47812;SDS011;34221;45.296;9.516;2024-02-21T16:24:49;27.67;;;18.90;;
47812;SDS011;34221;45.296;9.516;2024-02-21T16:25:05;26.13;;;17.77;;
47812;SDS011;34221;45.296;9.516;2024-02-21T16:25:20;24.58;;;18.10;;
47812;SDS011;34221;45.296;9.516;2024-02-21T16:25:35;23.60;;;18.08;;
47812;SDS011;34221;45.296;9.516;2024-02-21T16:25:50;24.20;;;18.10;;
47812;SDS011;34221;45.296;9.516;2024-02-21T16:26:06;25.83;;;18.27;;
47812;SDS011;34221;45.296;9.516;2024-02-21T16:26:21;25.25;;;18.33;;
47812;SDS011;34221;45.296;9.516;2024-02-21T16:26:36;23.92;;;17.85;;
47812;SDS011;34221;45.296;9.516;2024-02-21T16:26:51;23.35;;;16.35;;
47812;SDS011;34221;45.296;9.516;2024-02-21T16:27:06;22.50;;;15.93;;
47812;SDS011;34221;45.296;9.516;2024-02-21T16:27:24;22.37;;;16.43;;
47812;SDS011;34221;45.296;9.516;2024-02-21T16:27:39;23.27;;;17.00;;
47812;SDS011;34221;45.296;9.516;2024-02-21T16:27:55;23.40;;;17.17;;
47812;SDS011;34221;45.296;9.516;2024-02-21T16:28:11;24.10;;;17.20;;
47812;SDS011;34221;45.296;9.516;2024-02-21T16:28:27;24.35;;;17.10;;
47812;SDS011;34221;45.296;9.516;2024-02-21T16:28:41;25.48;;;17.92;;
47812;SDS011;34221;45.296;9.516;2024-02-21T16:28:56;24.38;;;17.48;;
47812;SDS011;34221;45.296;9.516;2024-02-21T16:29:12;23.25;;;16.80;;
47812;SDS011;34221;45.296;9.516;2024-02-21T16:29:27;23.20;;;17.35;;
47812;SDS011;34221;45.296;9.516;2024-02-21T16:29:42;24.30;;;17.40;;
47812;SDS011;34221;45.296;9.516;2024-02-21T16:29:57;25.77;;;17.52;;
47812;SDS011;34221;45.296;9.516;2024-02-21T16:30:12;27.90;;;18.13;;
47812;SDS011;34221;45.296;9.516;2024-02-21T16:30:27;26.50;;;17.60;;
47812;SDS011;34221;45.296;9.516;2024-02-21T16:30:42;25.38;;;18.27;;
47812;SDS011;34221;45.296;9.516;2024-02-21T16:30:57;25.25;;;18.08;;
47812;SDS011;34221;45.296;9.516;2024-02-21T16:31:13;23.63;;;17.33;;
47812;SDS011;34221;45.296;9.516;2024-02-21T16:31:29;23.40;;;17.67;;
47812;SDS011;34221;45.296;9.516;2024-02-21T16:31:44;23.58;;;17.00;;
47812;SDS011;34221;45.296;9.516;2024-02-21T16:31:58;22.70;;;16.58;;
47812;SDS011;34221;45.296;9.516;2024-02-21T16:32:14;23.48;;;17.67;;
47812;SDS011;34221;45.296;9.516;2024-02-21T16:32:29;23.55;;;17.65;;
47812;SDS011;34221;45.296;9.516;2024-02-21T16:32:50;23.33;;;17.23;;
47812;SDS011;34221;45.296;9.516;2024-02-21T16:33:06;26.13;;;18.33;;
47812;SDS011;34221;45.296;9.516;2024-02-21T16:33:23;26.05;;;18.00;;
47812;SDS011;34221;45.296;9.516;2024-02-21T16:33:41;24.92;;;17.15;;
47812;SDS011;34221;45.296;9.516;2024-02-21T16:33:56;24.17;;;17.83;;
47812;SDS011;34221;45.296;9.516;2024-02-21T16:34:11;24.90;;;18.27;;
47812;SDS011;34221;45.296;9.516;2024-02-21T16:34:26;25.33;;;17.65;;
47812;SDS011;34221;45.296;9.516;2024-02-21T16:34:41;26.95;;;17.75;;
47812;SDS011;34221;45.296;9.516;2024-02-21T16:34:55;27.33;;;18.38;;
47812;SDS011;34221;45.296;9.516;2024-02-21T16:35:10;26.52;;;17.45;;
47812;SDS011;34221;45.296;9.516;2024-02-21T16:35:26;24.40;;;16.33;;
47812;SDS011;34221;45.296;9.516;2024-02-21T16:35:43;23.80;;;16.80;;
47812;SDS011;34221;45.296;9.516;2024-02-21T16:35:58;25.77;;;17.58;;
47812;SDS011;34221;45.296;9.516;2024-02-21T16:36:23;23.60;;;17.08;;
47812;SDS011;34221;45.296;9.516;2024-02-21T16:36:39;23.13;;;16.58;;
47812;SDS011;34221;45.296;9.516;2024-02-21T16:36:57;23.75;;;16.27;;
47812;SDS011;34221;45.296;9.516;2024-02-21T16:37:12;22.95;;;16.38;;
47812;SDS011;34221;45.296;9.516;2024-02-21T16:37:29;22.67;;;16.83;;
47812;SDS011;34221;45.296;9.516;2024-02-21T16:37:44;22.88;;;16.90;;
47812;SDS011;34221;45.296;9.516;2024-02-21T16:38:00;21.90;;;15.95;;
47812;SDS011;34221;45.296;9.516;2024-02-21T16:38:16;21.98;;;16.33;;
47812;SDS011;34221;45.296;9.516;2024-02-21T16:38:31;23.35;;;16.85;;
47812;SDS011;34221;45.296;9.516;2024-02-21T16:38:47;24.70;;;17.02;;
47812;SDS011;34221;45.296;9.516;2024-02-21T16:39:05;23.42;;;17.38;;
47812;SDS011;34221;45.296;9.516;2024-02-21T16:39:21;23.23;;;17.38;;
47812;SDS011;34221;45.296;9.516;2024-02-21T16:39:36;23.48;;;16.95;;
47812;SDS011;34221;45.296;9.516;2024-02-21T16:39:51;23.52;;;17.55;;
47812;SDS011;34221;45.296;9.516;2024-02-21T16:40:07;23.85;;;18.20;;
47812;SDS011;34221;45.296;9.516;2024-02-21T16:40:22;23.88;;;17.48;;
47812;SDS011;34221;45.296;9.516;2024-02-21T16:40:37;22.35;;;17.45;;
47812;SDS011;34221;45.296;9.516;2024-02-21T16:40:52;24.02;;;18.40;;
47812;SDS011;34221;45.296;9.516;2024-02-21T16:41:07;25.40;;;17.83;;
47812;SDS011;34221;45.296;9.516;2024-02-21T16:41:22;24.63;;;17.00;;
47812;SDS011;34221;45.296;9.516;2024-02-21T16:41:37;23.85;;;16.77;;
47812;SDS011;34221;45.296;9.516;2024-02-21T16:41:52;23.45;;;17.00;;
47812;SDS011;34221;45.296;9.516;2024-02-21T16:42:09;25.67;;;17.85;;
47812;SDS011;34221;45.296;9.516;2024-02-21T16:42:25;27.63;;;18.65;;
47812;SDS011;34221;45.296;9.516;2024-02-21T16:42:39;25.88;;;18.42;;
47812;SDS011;34221;45.296;9.516;2024-02-21T16:42:54;25.27;;;17.92;;
47812;SDS011;34221;45.296;9.516;2024-02-21T16:43:12;25.73;;;19.35;;
47812;SDS011;34221;45.296;9.516;2024-02-21T16:43:27;25.02;;;18.85;;
47812;SDS011;34221;45.296;9.516;2024-02-21T16:43:43;23.35;;;17.70;;
47812;SDS011;34221;45.296;9.516;2024-02-21T16:44:00;23.17;;;18.45;;
47812;SDS011;34221;45.296;9.516;2024-02-21T16:44:14;24.23;;;18.38;;
47812;SDS011;34221;45.296;9.516;2024-02-21T16:44:30;25.27;;;17.98;;
47812;SDS011;34221;45.296;9.516;2024-02-21T16:44:45;24.75;;;17.70;;
47812;SDS011;34221;45.296;9.516;2024-02-21T16:45:00;24.63;;;16.90;;
47812;SDS011;34221;45.296;9.516;2024-02-21T16:45:15;24.05;;;17.10;;
47812;SDS011;34221;45.296;9.516;2024-02-21T16:45:32;23.35;;;18.05;;
47812;SDS011;34221;45.296;9.516;2024-02-21T16:45:47;22.52;;;17.27;;
47812;SDS011;34221;45.296;9.516;2024-02-21T16:46:02;23.45;;;16.77;;
47812;SDS011;34221;45.296;9.516;2024-02-21T16:46:17;24.83;;;17.35;;
47812;SDS011;34221;45.296;9.516;2024-02-21T16:46:33;22.48;;;16.85;;
47812;SDS011;34221;45.296;9.516;2024-02-21T16:46:49;21.75;;;16.67;;
47812;SDS011;34221;45.296;9.516;2024-02-21T16:47:04;21.52;;;16.30;;
47812;SDS011;34221;45.296;9.516;2024-02-21T16:47:19;21.90;;;17.02;;
47812;SDS011;34221;45.296;9.516;2024-02-21T16:47:34;23.30;;;17.45;;
47812;SDS011;34221;45.296;9.516;2024-02-21T16:47:49;23.87;;;16.43;;
47812;SDS011;34221;45.296;9.516;2024-02-21T16:48:04;22.33;;;15.70;;
47812;SDS011;34221;45.296;9.516;2024-02-21T16:48:20;20.75;;;15.27;;
47812;SDS011;34221;45.296;9.516;2024-02-21T16:48:35;24.15;;;16.58;;
47812;SDS011;34221;45.296;9.516;2024-02-21T16:48:50;25.38;;;17.85;;
47812;SDS011;34221;45.296;9.516;2024-02-21T16:49:05;23.60;;;17.13;;
47812;SDS011;34221;45.296;9.516;2024-02-21T16:49:21;23.85;;;16.33;;
47812;SDS011;34221;45.296;9.516;2024-02-21T16:49:36;23.63;;;16.90;;
47812;SDS011;34221;45.296;9.516;2024-02-21T16:49:50;25.33;;;17.93;;
47812;SDS011;34221;45.296;9.516;2024-02-21T16:50:06;25.90;;;18.17;;
47812;SDS011;34221;45.296;9.516;2024-02-21T16:50:22;25.98;;;18.30;;
47812;SDS011;34221;45.296;9.516;2024-02-21T16:50:37;26.95;;;18.73;;
47812;SDS011;34221;45.296;9.516;2024-02-21T16:50:53;24.95;;;18.58;;
47812;SDS011;34221;45.296;9.516;2024-02-21T16:51:09;23.98;;;17.98;;
47812;SDS011;34221;45.296;9.516;2024-02-21T16:51:24;22.70;;;17.33;;
47812;SDS011;34221;45.296;9.516;2024-02-21T16:51:39;23.70;;;17.70;;
47812;SDS011;34221;45.296;9.516;2024-02-21T16:51:54;24.00;;;17.80;;
47812;SDS011;34221;45.296;9.516;2024-02-21T16:52:09;23.50;;;17.55;;
47812;SDS011;34221;45.296;9.516;2024-02-21T16:52:24;23.63;;;17.35;;
47812;SDS011;34221;45.296;9.516;2024-02-21T16:52:39;25.67;;;18.48;;
47812;SDS011;34221;45.296;9.516;2024-02-21T16:52:54;25.38;;;18.50;;
47812;SDS011;34221;45.296;9.516;2024-02-21T16:53:09;24.77;;;17.75;;
47812;SDS011;34221;45.296;9.516;2024-02-21T16:53:24;25.50;;;17.92;;
47812;SDS011;34221;45.296;9.516;2024-02-21T16:53:39;24.88;;;17.65;;
47812;SDS011;34221;45.296;9.516;2024-02-21T16:53:54;23.73;;;16.35;;
47812;SDS011;34221;45.296;9.516;2024-02-21T16:54:09;22.92;;;15.75;;
47812;SDS011;34221;45.296;9.516;2024-02-21T16:54:24;23.35;;;16.38;;
47812;SDS011;34221;45.296;9.516;2024-02-21T16:54:42;24.08;;;17.45;;
47812;SDS011;34221;45.296;9.516;2024-02-21T16:54:57;24.33;;;17.15;;
47812;SDS011;34221;45.296;9.516;2024-02-21T16:55:12;23.25;;;17.08;;
47812;SDS011;34221;45.296;9.516;2024-02-21T16:55:27;22.40;;;17.23;;
47812;SDS011;34221;45.296;9.516;2024-02-21T16:55:44;22.65;;;16.55;;
47812;SDS011;34221;45.296;9.516;2024-02-21T16:55:59;23.23;;;16.33;;
47812;SDS011;34221;45.296;9.516;2024-02-21T16:56:14;21.67;;;16.42;;
47812;SDS011;34221;45.296;9.516;2024-02-21T16:56:29;20.75;;;16.35;;
47812;SDS011;34221;45.296;9.516;2024-02-21T16:56:44;21.30;;;17.17;;
47812;SDS011;34221;45.296;9.516;2024-02-21T16:56:58;23.60;;;18.20;;
47812;SDS011;34221;45.296;9.516;2024-02-21T16:57:13;23.17;;;17.47;;
47812;SDS011;34221;45.296;9.516;2024-02-21T16:57:29;21.10;;;16.52;;
47812;SDS011;34221;45.296;9.516;2024-02-21T16:57:44;22.30;;;16.92;;
47812;SDS011;34221;45.296;9.516;2024-02-21T16:58:00;22.38;;;16.85;;
47812;SDS011;34221;45.296;9.516;2024-02-21T16:58:15;22.38;;;16.50;;
47812;SDS011;34221;45.296;9.516;2024-02-21T16:58:30;23.33;;;17.48;;
47812;SDS011;34221;45.296;9.516;2024-02-21T16:58:50;21.92;;;17.90;;
47812;SDS011;34221;45.296;9.516;2024-02-21T16:59:05;25.75;;;19.25;;
47812;SDS011;34221;45.296;9.516;2024-02-21T16:59:20;28.40;;;19.92;;
47812;SDS011;34221;45.296;9.516;2024-02-21T16:59:35;31.52;;;20.80;;
47812;SDS011;34221;45.296;9.516;2024-02-21T16:59:51;30.85;;;20.98;;
47812;SDS011;34221;45.296;9.516;2024-02-21T17:00:07;28.20;;;19.50;;
47812;SDS011;34221;45.296;9.516;2024-02-21T17:00:25;28.00;;;19.25;;
47812;SDS011;34221;45.296;9.516;2024-02-21T17:00:40;28.20;;;18.77;;
47812;SDS011;34221;45.296;9.516;2024-02-21T17:00:56;27.80;;;18.75;;
47812;SDS011;34221;45.296;9.516;2024-02-21T17:01:10;28.05;;;19.48;;
47812;SDS011;34221;45.296;9.516;2024-02-21T17:01:25;26.40;;;18.63;;
47812;SDS011;34221;45.296;9.516;2024-02-21T17:01:40;23.98;;;17.30;;
47812;SDS011;34221;45.296;9.516;2024-02-21T17:01:55;24.55;;;17.13;;
47812;SDS011;34221;45.296;9.516;2024-02-21T17:02:10;25.90;;;18.23;;
47812;SDS011;34221;45.296;9.516;2024-02-21T17:02:25;27.88;;;19.33;;
47812;SDS011;34221;45.296;9.516;2024-02-21T17:02:40;24.95;;;17.88;;
47812;SDS011;34221;45.296;9.516;2024-02-21T17:02:57;23.92;;;17.67;;
47812;SDS011;34221;45.296;9.516;2024-02-21T17:03:12;25.77;;;18.60;;
47812;SDS011;34221;45.296;9.516;2024-02-21T17:03:27;27.75;;;18.65;;
47812;SDS011;34221;45.296;9.516;2024-02-21T17:03:42;27.35;;;17.88;;
47812;SDS011;34221;45.296;9.516;2024-02-21T17:03:57;25.00;;;17.33;;
47812;SDS011;34221;45.296;9.516;2024-02-21T17:04:12;24.80;;;17.40;;
47812;SDS011;34221;45.296;9.516;2024-02-21T17:04:29;23.25;;;17.13;;
47812;SDS011;34221;45.296;9.516;2024-02-21T17:04:44;22.67;;;17.08;;
47812;SDS011;34221;45.296;9.516;2024-02-21T17:04:59;24.42;;;17.42;;
47812;SDS011;34221;45.296;9.516;2024-02-21T17:05:14;23.60;;;17.30;;
47812;SDS011;34221;45.296;9.516;2024-02-21T17:05:29;21.67;;;16.40;;
47812;SDS011;34221;45.296;9.516;2024-02-21T17:05:44;23.10;;;17.15;;
47812;SDS011;34221;45.296;9.516;2024-02-21T17:05:59;24.38;;;17.72;;
47812;SDS011;34221;45.296;9.516;2024-02-21T17:06:14;23.23;;;16.42;;
47812;SDS011;34221;45.296;9.516;2024-02-21T17:06:29;23.13;;;16.15;;
47812;SDS011;34221;45.296;9.516;2024-02-21T17:06:46;23.95;;;16.75;;
47812;SDS011;34221;45.296;9.516;2024-02-21T17:07:01;23.52;;;17.70;;
47812;SDS011;34221;45.296;9.516;2024-02-21T17:07:17;22.77;;;17.73;;
47812;SDS011;34221;45.296;9.516;2024-02-21T17:07:32;22.50;;;16.48;;
47812;SDS011;34221;45.296;9.516;2024-02-21T17:07:47;24.63;;;16.98;;
47812;SDS011;34221;45.296;9.516;2024-02-21T17:08:02;24.42;;;16.88;;
47812;SDS011;34221;45.296;9.516;2024-02-21T17:08:18;22.55;;;16.42;;
47812;SDS011;34221;45.296;9.516;2024-02-21T17:08:33;24.40;;;17.15;;
47812;SDS011;34221;45.296;9.516;2024-02-21T17:08:48;26.70;;;17.93;;
47812;SDS011;34221;45.296;9.516;2024-02-21T17:09:04;24.38;;;17.33;;
47812;SDS011;34221;45.296;9.516;2024-02-21T17:09:21;27.42;;;18.73;;
47812;SDS011;34221;45.296;9.516;2024-02-21T17:09:36;28.70;;;18.38;;
47812;SDS011;34221;45.296;9.516;2024-02-21T17:09:52;23.90;;;16.88;;
47812;SDS011;34221;45.296;9.516;2024-02-21T17:10:07;25.05;;;17.58;;
47812;SDS011;34221;45.296;9.516;2024-02-21T17:10:23;24.98;;;17.48;;
47812;SDS011;34221;45.296;9.516;2024-02-21T17:10:38;23.63;;;16.80;;
47812;SDS011;34221;45.296;9.516;2024-02-21T17:10:55;22.58;;;16.48;;
47812;SDS011;34221;45.296;9.516;2024-02-21T17:11:11;23.75;;;16.70;;
47812;SDS011;34221;45.296;9.516;2024-02-21T17:11:26;23.63;;;16.58;;
47812;SDS011;34221;45.296;9.516;2024-02-21T17:11:41;21.33;;;15.93;;
47812;SDS011;34221;45.296;9.516;2024-02-21T17:11:56;22.77;;;16.10;;
47812;SDS011;34221;45.296;9.516;2024-02-21T17:12:12;24.67;;;17.35;;
47812;SDS011;34221;45.296;9.516;2024-02-21T17:12:27;23.75;;;17.23;;
47812;SDS011;34221;45.296;9.516;2024-02-21T17:12:42;23.23;;;17.27;;
47812;SDS011;34221;45.296;9.516;2024-02-21T17:12:57;24.83;;;18.85;;
47812;SDS011;34221;45.296;9.516;2024-02-21T17:13:12;24.95;;;18.08;;
47812;SDS011;34221;45.296;9.516;2024-02-21T17:13:27;24.50;;;17.17;;
47812;SDS011;34221;45.296;9.516;2024-02-21T17:13:43;22.65;;;16.50;;
47812;SDS011;34221;45.296;9.516;2024-02-21T17:13:58;23.10;;;17.13;;
47812;SDS011;34221;45.296;9.516;2024-02-21T17:14:13;25.50;;;18.87;;
47812;SDS011;34221;45.296;9.516;2024-02-21T17:14:28;25.25;;;18.75;;
47812;SDS011;34221;45.296;9.516;2024-02-21T17:14:43;25.10;;;18.38;;
47812;SDS011;34221;45.296;9.516;2024-02-21T17:14:58;24.83;;;17.48;;
47812;SDS011;34221;45.296;9.516;2024-02-21T17:15:13;23.98;;;17.27;;
47812;SDS011;34221;45.296;9.516;2024-02-21T17:15:30;24.23;;;17.70;;
47812;SDS011;34221;45.296;9.516;2024-02-21T17:15:44;25.65;;;18.00;;
47812;SDS011;34221;45.296;9.516;2024-02-21T17:16:00;24.80;;;17.80;;
47812;SDS011;34221;45.296;9.516;2024-02-21T17:16:15;26.35;;;18.50;;